createdAt,value
2024-02-23T00:00:06.736Z,3.69
2024-02-23T00:02:10.769Z,3.70
2024-02-23T00:04:17.697Z,3.70
2024-02-23T00:06:21.766Z,3.69
2024-02-23T00:08:25.814Z,3.70
2024-02-23T00:10:29.818Z,3.70
2024-02-23T00:12:33.680Z,3.72
2024-02-23T00:14:37.950Z,3.73
2024-02-23T00:16:42.681Z,3.75
2024-02-23T00:18:46.494Z,3.78
2024-02-23T00:20:51.730Z,3.80
2024-02-23T00:22:54.706Z,3.79
2024-02-23T00:24:58.471Z,3.80
2024-02-23T00:27:00.933Z,3.80
2024-02-23T00:29:05.849Z,3.79
2024-02-23T00:31:09.733Z,3.79
2024-02-23T00:33:13.949Z,3.81
2024-02-23T00:35:18.049Z,3.83
2024-02-23T00:37:23.490Z,3.83
2024-02-23T00:39:27.294Z,3.84
2024-02-23T00:41:31.089Z,3.85
2024-02-23T00:43:41.037Z,3.87
2024-02-23T00:45:45.190Z,3.88
2024-02-23T00:47:49.567Z,3.89
2024-02-23T00:49:53.413Z,3.90
2024-02-23T00:51:58.459Z,3.91
2024-02-23T00:54:03.717Z,3.93
2024-02-23T00:56:07.569Z,3.94
2024-02-23T00:58:11.307Z,3.95
2024-02-23T01:00:16.001Z,3.87
2024-02-23T01:02:19.900Z,3.83
2024-02-23T01:04:24.776Z,3.78
2024-02-23T01:06:29.949Z,3.75
2024-02-23T01:08:34.639Z,3.70
2024-02-23T01:10:40.136Z,3.68
2024-02-23T01:12:43.867Z,3.67
2024-02-23T01:14:49.870Z,3.64
2024-02-23T01:16:53.910Z,3.65
2024-02-23T01:18:58.129Z,3.65
2024-02-23T01:21:02.178Z,3.64
2024-02-23T01:23:06.102Z,3.62
2024-02-23T01:25:10.275Z,3.64
2024-02-23T01:27:14.620Z,3.65
2024-02-23T01:29:18.563Z,3.66
2024-02-23T01:31:22.300Z,3.67
2024-02-23T01:33:26.071Z,3.67
2024-02-23T01:35:31.824Z,3.67
2024-02-23T01:37:35.915Z,3.66
2024-02-23T01:39:39.643Z,3.64
2024-02-23T01:41:42.385Z,3.64
2024-02-23T01:43:48.065Z,3.61
2024-02-23T01:45:51.912Z,3.60
2024-02-23T01:47:54.905Z,3.58
2024-02-23T01:50:01.487Z,3.56
2024-02-23T01:52:06.255Z,3.55
2024-02-23T01:54:11.373Z,3.53
2024-02-23T01:56:19.955Z,3.53
2024-02-23T01:58:24.639Z,3.50
2024-02-23T02:00:29.862Z,3.50
2024-02-23T02:02:33.547Z,3.47
2024-02-23T02:04:37.690Z,3.46
2024-02-23T02:06:41.740Z,3.46
2024-02-23T02:08:44.659Z,3.46
2024-02-23T02:10:48.934Z,3.44
2024-02-23T02:12:52.779Z,3.44
2024-02-23T02:14:57.082Z,3.42
2024-02-23T02:17:02.752Z,3.43
2024-02-23T02:19:06.500Z,3.43
2024-02-23T02:21:10.329Z,3.44
2024-02-23T02:23:14.728Z,3.46
2024-02-23T02:25:17.621Z,3.48
2024-02-23T02:27:21.508Z,3.50
2024-02-23T02:29:25.234Z,3.50
2024-02-23T02:31:28.918Z,3.51
2024-02-23T02:33:34.419Z,3.51
2024-02-23T02:35:37.120Z,3.52
2024-02-23T02:37:40.936Z,3.52
2024-02-23T02:39:44.814Z,3.48
2024-02-23T02:41:50.375Z,3.46
2024-02-23T02:43:54.606Z,3.46
2024-02-23T02:45:58.445Z,3.44
2024-02-23T02:48:02.955Z,3.43
2024-02-23T02:50:08.978Z,3.42
2024-02-23T02:52:12.841Z,3.41
2024-02-23T02:54:16.577Z,3.41
2024-02-23T02:56:20.655Z,3.41
2024-02-23T02:58:24.586Z,3.42
2024-02-23T03:00:28.579Z,3.42
2024-02-23T03:02:32.401Z,3.43
2024-02-23T03:04:36.203Z,3.42
2024-02-23T03:06:41.697Z,3.44
2024-02-23T03:08:45.611Z,3.45
2024-02-23T03:10:50.189Z,3.45
2024-02-23T03:12:54.096Z,3.45
2024-02-23T03:14:58.523Z,3.44
2024-02-23T03:17:02.557Z,3.43
2024-02-23T03:19:06.811Z,3.41
2024-02-23T03:21:10.828Z,3.41
2024-02-23T03:23:16.222Z,3.37
2024-02-23T03:25:19.830Z,3.37
2024-02-23T03:27:30.805Z,3.35
2024-02-23T03:29:34.647Z,3.33
2024-02-23T03:31:38.399Z,3.32
2024-02-23T03:33:41.303Z,3.30
2024-02-23T03:35:45.391Z,3.31
2024-02-23T03:37:48.072Z,3.32
2024-02-23T03:39:53.361Z,3.31
2024-02-23T03:41:56.801Z,3.32
2024-02-23T03:44:00.733Z,3.32
2024-02-23T03:46:04.650Z,3.33
2024-02-23T03:48:08.940Z,3.33
2024-02-23T03:50:13.251Z,3.33
2024-02-23T03:52:17.343Z,3.32
2024-02-23T03:54:21.050Z,3.31
2024-02-23T03:56:26.523Z,3.30
2024-02-23T03:58:30.343Z,3.29
2024-02-23T04:00:34.155Z,3.28
2024-02-23T04:02:38.770Z,3.26
2024-02-23T04:04:42.480Z,3.27
2024-02-23T04:06:46.103Z,3.27
2024-02-23T04:08:51.239Z,3.24
2024-02-23T04:10:55.252Z,3.25
2024-02-23T04:13:00.785Z,3.24
2024-02-23T04:15:04.878Z,3.24
2024-02-23T04:17:08.693Z,3.24
2024-02-23T04:19:13.716Z,3.23
2024-02-23T04:21:17.082Z,3.21
2024-02-23T04:23:21.292Z,3.21
2024-02-23T04:25:25.423Z,3.21
2024-02-23T04:27:29.220Z,3.22
2024-02-23T04:29:34.714Z,3.21
2024-02-23T04:31:39.656Z,3.21
2024-02-23T04:33:43.753Z,3.21
2024-02-23T04:35:47.882Z,3.20
2024-02-23T04:37:51.924Z,3.19
2024-02-23T04:39:54.609Z,3.19
2024-02-23T04:41:58.616Z,3.19
2024-02-23T04:44:03.483Z,3.18
2024-02-23T04:46:07.656Z,3.19
2024-02-23T04:48:11.448Z,3.19
2024-02-23T04:50:15.437Z,3.18
2024-02-23T04:52:19.208Z,3.18
2024-02-23T04:54:23.082Z,3.18
2024-02-23T04:56:26.782Z,3.17
2024-02-23T04:58:29.477Z,3.19
2024-02-23T05:00:35.235Z,3.21
2024-02-23T05:02:40.389Z,3.26
2024-02-23T05:04:43.987Z,3.25
2024-02-23T05:06:47.860Z,3.27
2024-02-23T05:08:51.623Z,3.27
2024-02-23T05:10:55.240Z,3.25
2024-02-23T05:12:59.005Z,3.22
2024-02-23T05:15:01.856Z,3.20
2024-02-23T05:17:05.993Z,3.19
2024-02-23T05:19:10.078Z,3.18
2024-02-23T05:21:13.878Z,3.17
2024-02-23T05:23:18.204Z,3.16
2024-02-23T05:25:21.811Z,3.15
2024-02-23T05:27:25.544Z,3.12
2024-02-23T05:29:29.464Z,3.12
2024-02-23T05:31:48.895Z,3.12
2024-02-23T05:33:52.788Z,3.09
2024-02-23T05:35:57.875Z,3.07
2024-02-23T05:38:01.909Z,3.07
2024-02-23T05:40:11.544Z,3.05
2024-02-23T05:42:15.711Z,3.04
2024-02-23T05:44:19.743Z,3.04
2024-02-23T05:46:23.813Z,3.03
2024-02-23T05:48:27.560Z,3.03
2024-02-23T05:50:33.584Z,3.03
2024-02-23T05:52:38.657Z,3.02
2024-02-23T05:54:42.509Z,3.02
2024-02-23T05:56:47.334Z,2.99
2024-02-23T05:58:51.005Z,2.99
2024-02-23T06:00:54.989Z,2.98
2024-02-23T06:02:58.805Z,2.97
2024-02-23T06:05:02.726Z,2.98
2024-02-23T06:07:06.602Z,2.98
2024-02-23T06:09:12.162Z,2.98
2024-02-23T06:11:15.916Z,2.98
2024-02-23T06:13:19.695Z,2.97
2024-02-23T06:15:23.365Z,2.96
2024-02-23T06:17:26.095Z,2.97
2024-02-23T06:19:30.121Z,2.95
2024-02-23T06:21:34.254Z,2.96
2024-02-23T06:23:37.361Z,2.97
2024-02-23T06:25:44.556Z,2.98
2024-02-23T06:27:49.728Z,2.98
2024-02-23T06:29:53.415Z,2.98
2024-02-23T06:31:57.202Z,2.98
2024-02-23T06:34:01.696Z,2.98
2024-02-23T06:36:06.216Z,2.98
2024-02-23T06:38:11.206Z,2.97
2024-02-23T06:40:15.433Z,2.95
2024-02-23T06:42:19.498Z,2.95
2024-02-23T06:44:23.634Z,2.95
2024-02-23T06:46:27.641Z,2.96
2024-02-23T06:48:30.861Z,2.96
2024-02-23T06:50:35.176Z,2.96
2024-02-23T06:52:39.617Z,2.96
2024-02-23T06:54:43.296Z,2.96
2024-02-23T06:56:48.119Z,2.99
2024-02-23T06:58:53.401Z,3.00
2024-02-23T07:00:56.983Z,3.00
2024-02-23T07:03:05.324Z,3.04
2024-02-23T07:05:10.069Z,3.07
2024-02-23T07:07:14.017Z,3.11
2024-02-23T07:09:18.007Z,3.12
2024-02-23T07:11:21.809Z,3.14
2024-02-23T07:13:26.453Z,3.16
2024-02-23T07:15:33.975Z,3.18
2024-02-23T07:17:36.832Z,3.20
2024-02-23T07:19:41.055Z,3.20
2024-02-23T07:21:44.405Z,3.22
2024-02-23T07:23:48.313Z,3.23
2024-02-23T07:25:53.025Z,3.22
2024-02-23T07:27:56.764Z,3.19
2024-02-23T07:29:59.368Z,3.17
2024-02-23T07:32:04.870Z,3.15
2024-02-23T07:34:10.242Z,3.14
2024-02-23T07:36:16.653Z,3.10
2024-02-23T07:38:19.680Z,3.09
2024-02-23T07:40:23.572Z,3.10
2024-02-23T07:42:28.509Z,3.09
2024-02-23T07:44:32.441Z,3.11
2024-02-23T07:46:36.348Z,3.09
2024-02-23T07:48:41.706Z,3.11
2024-02-23T07:50:45.449Z,3.12
2024-02-23T07:52:51.692Z,3.14
2024-02-23T07:54:55.743Z,3.14
2024-02-23T07:56:59.577Z,3.15
2024-02-23T07:59:04.838Z,3.17
2024-02-23T08:01:08.903Z,3.20
2024-02-23T08:03:12.916Z,3.22
2024-02-23T08:05:18.516Z,3.27
2024-02-23T08:07:22.865Z,3.30
2024-02-23T08:09:26.649Z,3.33
2024-02-23T08:11:32.523Z,3.33
2024-02-23T08:13:36.642Z,3.34
2024-02-23T08:15:40.678Z,3.38
2024-02-23T08:17:44.716Z,3.42
2024-02-23T08:19:48.521Z,3.46
2024-02-23T08:21:54.001Z,3.49
2024-02-23T08:23:56.881Z,3.52
2024-02-23T08:26:01.926Z,3.56
2024-02-23T08:28:06.406Z,3.56
2024-02-23T08:30:12.249Z,3.55
2024-02-23T08:32:16.192Z,3.54
2024-02-23T08:34:20.067Z,3.54
2024-02-23T08:36:24.100Z,3.55
2024-02-23T08:38:29.543Z,3.55
2024-02-23T08:40:32.869Z,3.53
2024-02-23T08:42:36.568Z,3.52
2024-02-23T08:44:40.790Z,3.54
2024-02-23T08:46:44.664Z,3.54
2024-02-23T08:48:49.353Z,3.54
2024-02-23T08:50:53.323Z,3.55
2024-02-23T08:52:57.084Z,3.56
2024-02-23T08:55:01.749Z,3.55
2024-02-23T08:57:06.579Z,3.52
2024-02-23T08:59:10.354Z,3.53
2024-02-23T09:01:13.304Z,3.55
2024-02-23T09:03:17.141Z,3.55
2024-02-23T09:05:22.197Z,3.54
2024-02-23T09:07:25.388Z,3.53
2024-02-23T09:09:30.189Z,3.54
2024-02-23T09:11:35.623Z,3.58
2024-02-23T09:13:39.805Z,3.59
2024-02-23T09:15:43.807Z,3.60
2024-02-23T09:17:47.618Z,3.61
2024-02-23T09:19:51.502Z,3.64
2024-02-23T09:21:55.935Z,3.63
2024-02-23T09:24:00.335Z,3.64
2024-02-23T09:26:04.551Z,3.63
2024-02-23T09:28:12.786Z,3.64
2024-02-23T09:30:17.553Z,3.62
2024-02-23T09:32:22.007Z,3.63
2024-02-23T09:34:26.505Z,3.62
2024-02-23T09:36:31.765Z,3.64
2024-02-23T09:38:36.147Z,3.65
2024-02-23T09:40:41.780Z,3.64
2024-02-23T09:42:49.601Z,3.60
2024-02-23T09:45:01.398Z,3.61
2024-02-23T09:47:09.842Z,3.61
2024-02-23T09:49:14.672Z,3.63
2024-02-23T09:51:19.337Z,3.66
2024-02-23T09:53:24.295Z,3.65
2024-02-23T09:55:29.077Z,3.66
2024-02-23T09:57:33.011Z,3.68
2024-02-23T09:59:39.678Z,3.68
2024-02-23T10:01:46.590Z,3.69
2024-02-23T10:03:51.556Z,3.72
2024-02-23T10:05:55.584Z,3.72
2024-02-23T10:07:59.963Z,3.73
2024-02-23T10:10:05.266Z,3.73
2024-02-23T10:12:10.596Z,3.74
2024-02-23T10:14:14.644Z,3.75
2024-02-23T10:16:18.547Z,3.76
2024-02-23T10:18:25.018Z,3.78
2024-02-23T10:20:29.092Z,3.80
2024-02-23T10:22:34.872Z,3.82
2024-02-23T10:24:39.599Z,3.85
2024-02-23T10:26:42.699Z,3.86
2024-02-23T10:28:47.769Z,3.86
2024-02-23T10:30:51.292Z,3.88
2024-02-23T10:32:59.161Z,3.88
2024-02-23T10:35:05.638Z,3.92
2024-02-23T10:37:09.759Z,3.95
2024-02-23T10:39:18.280Z,3.98
2024-02-23T10:41:23.560Z,3.99
2024-02-23T10:43:32.460Z,4.01
2024-02-23T10:45:37.705Z,4.03
2024-02-23T10:47:40.322Z,4.01
2024-02-23T10:49:46.917Z,4.06
2024-02-23T10:51:53.856Z,4.08
2024-02-23T10:53:58.923Z,4.12
2024-02-23T10:56:01.619Z,4.18
2024-02-23T10:58:08.723Z,4.21
2024-02-23T11:00:13.989Z,4.24
2024-02-23T11:02:19.319Z,4.28
2024-02-23T11:04:24.703Z,4.30
2024-02-23T11:06:30.494Z,4.33
2024-02-23T11:08:38.703Z,4.35
2024-02-23T11:10:45.970Z,4.39
2024-02-23T11:13:00.870Z,4.45
2024-02-23T11:15:05.297Z,4.48
2024-02-23T11:17:09.314Z,4.51
2024-02-23T11:19:13.434Z,4.55
2024-02-23T11:21:17.947Z,4.60
2024-02-23T11:23:22.129Z,4.65
2024-02-23T11:25:35.438Z,4.67
2024-02-23T11:27:41.831Z,4.69
2024-02-23T11:29:49.337Z,4.73
2024-02-23T11:31:57.432Z,4.78
2024-02-23T11:34:01.269Z,4.83
2024-02-23T11:36:09.173Z,4.86
2024-02-23T11:38:13.411Z,4.90
2024-02-23T11:40:17.685Z,4.94
2024-02-23T11:42:23.407Z,5.00
2024-02-23T11:44:27.258Z,5.04
2024-02-23T11:46:31.162Z,5.07
2024-02-23T11:48:34.967Z,5.10
2024-02-23T11:50:39.047Z,5.16
2024-02-23T11:52:43.819Z,5.23
2024-02-23T11:54:47.731Z,5.31
2024-02-23T11:56:53.885Z,5.39
2024-02-23T11:58:59.143Z,5.43
2024-02-23T12:01:03.895Z,5.45
2024-02-23T12:03:09.000Z,5.45
2024-02-23T12:05:12.999Z,5.44
2024-02-23T12:07:18.355Z,5.45
2024-02-23T12:09:22.360Z,5.46
2024-02-23T12:11:26.692Z,5.45
2024-02-23T12:13:30.922Z,5.47
2024-02-23T12:15:36.335Z,5.47
2024-02-23T12:17:40.197Z,5.47
2024-02-23T12:19:44.428Z,5.42
2024-02-23T12:21:48.547Z,5.40
2024-02-23T12:23:51.999Z,5.42
2024-02-23T12:25:57.375Z,5.43
2024-02-23T12:28:01.539Z,5.45
2024-02-23T12:30:06.292Z,5.47
2024-02-23T12:32:13.435Z,5.48
2024-02-23T12:34:18.798Z,5.51
2024-02-23T12:36:22.933Z,5.54
2024-02-23T12:38:27.156Z,5.56
2024-02-23T12:40:30.986Z,5.60
2024-02-23T12:42:33.735Z,5.64
2024-02-23T12:44:37.872Z,5.69
2024-02-23T12:46:42.344Z,5.76
2024-02-23T12:48:47.683Z,5.82
2024-02-23T12:50:52.293Z,5.88
2024-02-23T12:52:56.140Z,5.99
2024-02-23T12:55:00.055Z,6.09
2024-02-23T12:57:03.689Z,6.20
2024-02-23T12:59:08.565Z,6.28
2024-02-23T13:01:12.579Z,6.36
2024-02-23T13:03:16.446Z,6.41
2024-02-23T13:05:21.685Z,6.45
2024-02-23T13:07:27.768Z,6.49
2024-02-23T13:09:32.961Z,6.56
2024-02-23T13:11:37.369Z,6.56
2024-02-23T13:13:42.842Z,6.57
2024-02-23T13:15:48.688Z,6.56
2024-02-23T13:17:52.615Z,6.55
2024-02-23T13:20:05.543Z,6.49
2024-02-23T13:22:16.466Z,6.41
2024-02-23T13:24:20.856Z,6.33
2024-02-23T13:26:24.906Z,6.25
2024-02-23T13:28:28.500Z,6.20
2024-02-23T13:30:32.562Z,6.21
2024-02-23T13:32:36.622Z,6.22
2024-02-23T13:34:40.575Z,6.26
2024-02-23T13:36:44.593Z,6.28
2024-02-23T13:38:50.055Z,6.24
2024-02-23T13:40:53.943Z,6.28
2024-02-23T13:42:58.998Z,6.26
2024-02-23T13:45:02.908Z,6.19
2024-02-23T13:47:07.039Z,6.10
2024-02-23T13:49:14.407Z,6.03
2024-02-23T13:51:18.371Z,5.95
2024-02-23T13:53:22.154Z,5.87
2024-02-23T13:55:27.480Z,5.83
2024-02-23T13:57:31.262Z,5.81
2024-02-23T13:59:35.754Z,5.75
2024-02-23T14:01:39.528Z,5.73
2024-02-23T14:03:43.409Z,5.74
2024-02-23T14:05:48.733Z,5.74
2024-02-23T14:07:51.760Z,5.80
2024-02-23T14:09:55.675Z,5.81
2024-02-23T14:12:00.899Z,5.87
2024-02-23T14:14:05.328Z,5.92
2024-02-23T14:16:09.504Z,5.96
2024-02-23T14:18:13.457Z,6.00
2024-02-23T14:20:17.722Z,6.03
2024-02-23T14:22:21.678Z,6.04
2024-02-23T14:24:25.581Z,6.06
2024-02-23T14:26:29.704Z,6.07
2024-02-23T14:28:35.009Z,6.07
2024-02-23T14:30:38.944Z,6.06
2024-02-23T14:32:44.009Z,6.06
2024-02-23T14:34:47.187Z,6.06
2024-02-23T14:36:51.251Z,6.07
2024-02-23T14:38:55.267Z,6.11
2024-02-23T14:40:59.735Z,6.18
2024-02-23T14:43:03.719Z,6.25
2024-02-23T14:45:10.819Z,6.35
2024-02-23T14:47:14.734Z,6.41
2024-02-23T14:49:18.618Z,6.48
2024-02-23T14:51:22.382Z,6.50
2024-02-23T14:53:29.457Z,6.55
2024-02-23T14:55:33.564Z,6.59
2024-02-23T14:57:37.397Z,6.68
2024-02-23T14:59:47.960Z,6.72
2024-02-23T15:01:53.395Z,6.77
2024-02-23T15:03:57.951Z,6.76
2024-02-23T15:06:02.862Z,6.73
2024-02-23T15:08:07.575Z,6.69
2024-02-23T15:10:11.756Z,6.64
2024-02-23T15:12:16.293Z,6.59
2024-02-23T15:14:20.374Z,6.58
2024-02-23T15:16:23.272Z,6.55
2024-02-23T15:18:28.726Z,6.54
2024-02-23T15:20:33.578Z,6.54
2024-02-23T15:22:43.526Z,6.54
2024-02-23T15:24:50.737Z,6.55
2024-02-23T15:26:55.535Z,6.55
2024-02-23T15:28:59.313Z,6.55
2024-02-23T15:31:04.247Z,6.53
2024-02-23T15:33:08.240Z,6.49
2024-02-23T15:35:13.735Z,6.44
2024-02-23T15:37:17.617Z,6.35
2024-02-23T15:39:20.321Z,6.30
2024-02-23T15:41:24.086Z,6.24
2024-02-23T15:43:29.400Z,6.18
2024-02-23T15:45:33.359Z,6.13
2024-02-23T15:47:37.103Z,6.09
2024-02-23T15:50:00.737Z,6.06
2024-02-23T15:52:06.536Z,6.01
2024-02-23T15:54:10.580Z,6.00
2024-02-23T15:56:14.436Z,5.97
2024-02-23T15:58:21.198Z,5.95
2024-02-23T16:00:25.234Z,5.91
2024-02-23T16:02:30.687Z,5.88
2024-02-23T16:04:34.147Z,5.90
2024-02-23T16:06:38.210Z,5.90
2024-02-23T16:08:45.512Z,5.90
2024-02-23T16:10:49.430Z,5.91
2024-02-23T16:12:53.496Z,5.91
2024-02-23T16:14:57.958Z,5.93
2024-02-23T16:17:02.004Z,5.95
2024-02-23T16:19:06.090Z,5.95
2024-02-23T16:21:11.209Z,5.92
2024-02-23T16:23:14.997Z,5.90
2024-02-23T16:25:21.107Z,5.88
2024-02-23T16:27:24.700Z,5.86
2024-02-23T16:29:28.688Z,5.85
2024-02-23T16:31:32.608Z,5.83
2024-02-23T16:33:36.276Z,5.83
2024-02-23T16:35:40.378Z,5.81
2024-02-23T16:37:44.308Z,5.81
2024-02-23T16:39:48.367Z,5.80
2024-02-23T16:41:53.956Z,5.79
2024-02-23T16:43:59.059Z,5.77
2024-02-23T16:46:02.914Z,5.75
2024-02-23T16:48:09.357Z,5.72
2024-02-23T16:50:13.537Z,5.71
2024-02-23T16:52:17.482Z,5.69
2024-02-23T16:54:22.204Z,5.67
2024-02-23T16:56:28.753Z,5.65
2024-02-23T16:58:37.907Z,5.63
2024-02-23T17:00:41.917Z,5.59
2024-02-23T17:02:45.866Z,5.57
2024-02-23T17:04:49.847Z,5.53
2024-02-23T17:06:54.161Z,5.52
2024-02-23T17:08:58.039Z,5.49
2024-02-23T17:11:02.003Z,5.46
2024-02-23T17:13:06.269Z,5.44
2024-02-23T17:15:12.536Z,5.42
2024-02-23T17:17:16.545Z,5.39
2024-02-23T17:19:20.817Z,5.37
2024-02-23T17:21:25.526Z,5.34
2024-02-23T17:23:29.726Z,5.31
2024-02-23T17:25:34.406Z,5.30
2024-02-23T17:27:39.350Z,5.27
2024-02-23T17:29:43.544Z,5.26
2024-02-23T17:31:48.659Z,5.24
2024-02-23T17:33:52.211Z,5.20
2024-02-23T17:35:56.645Z,5.19
2024-02-23T17:38:00.652Z,5.15
2024-02-23T17:40:04.497Z,5.13
2024-02-23T17:42:07.907Z,5.09
2024-02-23T17:44:12.306Z,5.07
2024-02-23T17:46:16.256Z,5.03
2024-02-23T17:48:21.757Z,5.01
2024-02-23T17:50:26.260Z,4.97
2024-02-23T17:52:30.206Z,4.92
2024-02-23T17:54:33.146Z,4.88
2024-02-23T17:56:37.442Z,4.85
2024-02-23T17:58:41.437Z,4.81
2024-02-23T18:00:45.913Z,4.77
2024-02-23T18:02:50.885Z,4.74
2024-02-23T18:04:56.269Z,4.71
2024-02-23T18:07:01.239Z,4.67
2024-02-23T18:09:06.500Z,4.65
2024-02-23T18:11:10.689Z,4.63
2024-02-23T18:13:14.529Z,4.58
2024-02-23T18:15:17.563Z,4.57
2024-02-23T18:17:22.272Z,4.52
2024-02-23T18:19:25.270Z,4.49
2024-02-23T18:21:32.755Z,4.46
2024-02-23T18:23:36.615Z,4.44
2024-02-23T18:25:40.698Z,4.39
2024-02-23T18:27:44.482Z,4.36
2024-02-23T18:29:48.498Z,4.31
2024-02-23T18:31:52.574Z,4.28
2024-02-23T18:33:55.689Z,4.24
2024-02-23T18:35:59.469Z,4.21
2024-02-23T18:38:04.778Z,4.17
2024-02-23T18:40:10.832Z,4.16
2024-02-23T18:42:14.675Z,4.14
2024-02-23T18:44:18.471Z,4.10
2024-02-23T18:46:22.574Z,4.07
2024-02-23T18:48:26.674Z,4.05
2024-02-23T18:50:30.758Z,4.03
2024-02-23T18:52:33.589Z,4.02
2024-02-23T18:54:38.736Z,4.02
2024-02-23T18:56:42.520Z,4.00
2024-02-23T18:58:46.560Z,3.99
2024-02-23T19:00:50.316Z,3.97
2024-02-23T19:02:54.193Z,3.96
2024-02-23T19:04:58.042Z,3.94
2024-02-23T19:07:01.900Z,3.93
2024-02-23T19:09:06.350Z,3.91
2024-02-23T19:11:12.534Z,3.90
2024-02-23T19:13:16.323Z,3.88
2024-02-23T19:15:20.232Z,3.88
2024-02-23T19:17:24.575Z,3.87
2024-02-23T19:19:28.453Z,3.88
2024-02-23T19:21:32.865Z,3.86
2024-02-23T19:23:37.011Z,3.85
2024-02-23T19:25:40.909Z,3.83
2024-02-23T19:27:46.316Z,3.83
2024-02-23T19:29:49.111Z,3.83
2024-02-23T19:31:53.180Z,3.82
2024-02-23T19:33:57.134Z,3.82
2024-02-23T19:36:01.293Z,3.81
2024-02-23T19:38:05.873Z,3.79
2024-02-23T19:40:12.316Z,3.81
2024-02-23T19:42:17.671Z,3.82
2024-02-23T19:44:23.380Z,3.81
2024-02-23T19:46:27.407Z,3.82
2024-02-23T19:48:31.474Z,3.82
2024-02-23T19:50:35.355Z,3.80
2024-02-23T19:52:39.685Z,3.79
2024-02-23T19:54:43.665Z,3.79
2024-02-23T19:56:46.441Z,3.79
2024-02-23T19:58:50.487Z,3.78
2024-02-23T20:00:55.809Z,3.79
2024-02-23T20:02:59.797Z,3.79
2024-02-23T20:05:04.818Z,3.79
2024-02-23T20:07:10.897Z,3.78
2024-02-23T20:09:15.166Z,3.78
2024-02-23T20:11:19.116Z,3.76
2024-02-23T20:13:23.448Z,3.75
2024-02-23T20:15:27.646Z,3.74
2024-02-23T20:17:33.677Z,3.74
2024-02-23T20:19:38.573Z,3.73
2024-02-23T20:21:43.082Z,3.72
2024-02-23T20:23:47.343Z,3.73
2024-02-23T20:25:51.168Z,3.72
2024-02-23T20:27:55.060Z,3.71
2024-02-23T20:29:59.215Z,3.72
2024-02-23T20:32:10.623Z,3.71
2024-02-23T20:34:21.388Z,3.70
2024-02-23T20:36:25.445Z,3.72
2024-02-23T20:38:29.437Z,3.72
2024-02-23T20:40:33.870Z,3.71
2024-02-23T20:42:37.870Z,3.72
2024-02-23T20:44:42.240Z,3.72
2024-02-23T20:46:46.603Z,3.72
2024-02-23T20:48:50.751Z,3.72
2024-02-23T20:50:56.212Z,3.72
2024-02-23T20:52:59.714Z,3.73
2024-02-23T20:55:05.182Z,3.72
2024-02-23T20:57:09.367Z,3.72
2024-02-23T20:59:14.027Z,3.71
2024-02-23T21:01:17.762Z,3.72
2024-02-23T21:03:22.316Z,3.72
2024-02-23T21:05:26.154Z,3.72
2024-02-23T21:07:31.889Z,3.71
2024-02-23T21:09:36.421Z,3.71
2024-02-23T21:11:40.571Z,3.70
2024-02-23T21:13:44.759Z,3.69
2024-02-23T21:15:48.994Z,3.68
2024-02-23T21:17:54.433Z,3.67
2024-02-23T21:19:58.622Z,3.68
2024-02-23T21:22:04.356Z,3.67
2024-02-23T21:24:09.868Z,3.68
2024-02-23T21:26:14.127Z,3.67
2024-02-23T21:28:19.498Z,3.68
2024-02-23T21:30:24.081Z,3.68
2024-02-23T21:32:27.912Z,3.70
2024-02-23T21:34:31.905Z,3.71
2024-02-23T21:36:35.868Z,3.71
2024-02-23T21:38:39.680Z,3.71
2024-02-23T21:40:43.911Z,3.72
2024-02-23T21:42:47.589Z,3.71
2024-02-23T21:44:50.331Z,3.70
2024-02-23T21:46:54.111Z,3.70
2024-02-23T21:48:59.845Z,3.71
2024-02-23T21:51:05.294Z,3.71
2024-02-23T21:53:09.975Z,3.72
2024-02-23T21:55:12.774Z,3.71
2024-02-23T21:57:18.283Z,3.70
2024-02-23T21:59:21.293Z,3.72
2024-02-23T22:01:25.323Z,3.72
2024-02-23T22:03:30.195Z,3.72
2024-02-23T22:05:34.344Z,3.71
2024-02-23T22:07:38.889Z,3.72
2024-02-23T22:09:44.780Z,3.71
2024-02-23T22:11:48.586Z,3.72
2024-02-23T22:13:54.467Z,3.71
2024-02-23T22:15:57.220Z,3.71
2024-02-23T22:18:01.402Z,3.72
2024-02-23T22:20:04.630Z,3.72
2024-02-23T22:22:08.552Z,3.71
2024-02-23T22:24:12.801Z,3.70
2024-02-23T22:26:15.607Z,3.71
2024-02-23T22:28:19.686Z,3.70
2024-02-23T22:30:26.635Z,3.72
2024-02-23T22:32:31.362Z,3.72
2024-02-23T22:34:35.568Z,3.71
2024-02-23T22:36:39.951Z,3.72
2024-02-23T22:38:45.223Z,3.72
2024-02-23T22:40:49.259Z,3.72
2024-02-23T22:42:53.928Z,3.71
2024-02-23T22:45:01.869Z,3.70
2024-02-23T22:47:08.855Z,3.69
2024-02-23T22:49:13.192Z,3.68
2024-02-23T22:51:15.878Z,3.67
2024-02-23T22:53:19.791Z,3.65
2024-02-23T22:55:24.991Z,3.64
2024-02-23T22:57:28.544Z,3.62
2024-02-23T22:59:32.699Z,3.61
2024-02-23T23:01:39.442Z,3.60
2024-02-23T23:03:47.308Z,3.60
2024-02-23T23:05:51.395Z,3.59
2024-02-23T23:07:55.914Z,3.57
2024-02-23T23:09:59.565Z,3.56
2024-02-23T23:12:03.600Z,3.55
2024-02-23T23:14:07.369Z,3.56
2024-02-23T23:16:11.319Z,3.54
2024-02-23T23:18:15.351Z,3.53
2024-02-23T23:20:20.873Z,3.52
2024-02-23T23:22:24.762Z,3.51
2024-02-23T23:24:29.530Z,3.50
2024-02-23T23:26:32.277Z,3.50
2024-02-23T23:28:36.204Z,3.50
2024-02-23T23:30:40.326Z,3.49
2024-02-23T23:32:44.417Z,3.49
2024-02-23T23:34:49.744Z,3.48
2024-02-23T23:36:58.165Z,3.47
2024-02-23T23:39:02.709Z,3.48
2024-02-23T23:41:07.164Z,3.51
2024-02-23T23:43:10.963Z,3.52
2024-02-23T23:45:16.396Z,3.53
2024-02-23T23:47:20.373Z,3.52
2024-02-23T23:49:24.122Z,3.52
2024-02-23T23:51:28.568Z,3.52
2024-02-23T23:53:32.927Z,3.51
2024-02-23T23:55:38.053Z,3.48
2024-02-23T23:57:41.918Z,3.46
2024-02-23T23:59:44.843Z,3.42
